Time;durP1;ratioP1;P1;durP2;ratioP2;P2;SDS_P1;SDS_P2;PMS_P1;PMS_P2;Temp;Humidity;BMP_temperature;BMP_pressure;BME280_temperature;BME280_humidity;BME280_pressure;Samples;Min_cycle;Max_cycle;Signal;HPM_P1;HPM_P2
2022/03/21 00:00:52;;;;;;;42.60;38.30;;;;;;;1.02;34.52;100207.50;105935;1280;24366;-76
2022/03/21 00:03:27;;;;;;;41.30;37.20;;;;;;;1.04;34.46;100203.57;106069;1280;24309;-76
2022/03/21 00:05:57;;;;;;;37.70;33.90;;;;;;;1.10;34.73;100203.51;105552;1279;22706;-76
2022/03/21 00:08:25;;;;;;;38.20;34.20;;;;;;;1.15;34.98;100202.58;105638;1280;25495;-75
2022/03/21 00:10:55;;;;;;;36.20;32.60;;;;;;;1.21;34.95;100202.98;105530;1279;25430;-76
2022/03/21 00:13:24;;;;;;;36.60;32.80;;;;;;;1.25;34.92;100203.91;105564;1280;24244;-75
2022/03/21 00:15:54;;;;;;;37.80;34.00;;;;;;;1.28;35.15;100202.68;105732;1280;22657;-76
2022/03/21 00:18:24;;;;;;;36.00;32.30;;;;;;;1.29;35.25;100201.39;105688;1279;24438;-77
2022/03/21 00:20:56;;;;;;;36.10;32.80;;;;;;;1.32;34.95;100199.21;105862;1280;22677;-76
2022/03/21 00:23:26;;;;;;;36.90;33.10;;;;;;;1.32;34.88;100200.09;105777;1279;22746;-78
2022/03/21 00:25:54;;;;;;;38.00;34.30;;;;;;;1.31;35.06;100197.66;105606;1279;24340;-77
2022/03/21 00:28:24;;;;;;;38.60;34.40;;;;;;;1.30;35.11;100197.45;105569;1280;25268;-77
2022/03/21 00:30:53;;;;;;;38.10;34.20;;;;;;;1.28;35.05;100195.93;105319;1283;24223;-77
2022/03/21 00:33:21;;;;;;;38.30;34.60;;;;;;;1.25;35.13;100191.16;105658;1280;22797;-77
2022/03/21 00:35:50;;;;;;;38.60;34.80;;;;;;;1.23;35.28;100187.73;105427;1280;24304;-78
2022/03/21 00:38:20;;;;;;;37.50;33.70;;;;;;;1.20;35.25;100186.30;105639;1280;22655;-79
2022/03/21 00:40:48;;;;;;;38.20;34.50;;;;;;;1.18;35.43;100184.19;105565;1280;25500;-78
2022/03/21 00:43:21;;;;;;;39.00;35.20;;;;;;;1.16;35.31;100180.36;105614;1281;23211;-78
2022/03/21 00:45:52;;;;;;;39.40;35.60;;;;;;;1.14;35.35;100178.31;105720;1280;22563;-79
2022/03/21 00:48:22;;;;;;;36.60;33.10;;;;;;;1.13;35.33;100177.54;105480;1279;22571;-76
2022/03/21 00:50:52;;;;;;;37.60;33.80;;;;;;;1.12;35.28;100177.15;105647;1279;22774;-77
2022/03/21 00:53:21;;;;;;;37.00;33.20;;;;;;;1.11;35.41;100178.45;105269;1280;25417;-76
2022/03/21 00:55:50;;;;;;;36.10;32.60;;;;;;;1.11;35.39;100172.85;105417;1280;25202;-77
2022/03/21 00:58:18;;;;;;;36.60;33.00;;;;;;;1.09;35.55;100169.89;105610;1279;22700;-77
2022/03/21 01:00:46;;;;;;;37.40;33.70;;;;;;;1.07;35.55;100169.00;105636;1279;22691;-77
2022/03/21 01:03:14;;;;;;;34.00;30.60;;;;;;;1.07;35.61;100174.02;105570;1279;26208;-77
2022/03/21 01:05:43;;;;;;;37.30;33.60;;;;;;;1.05;35.55;100174.76;105558;1281;22580;-77
2022/03/21 01:08:11;;;;;;;38.10;34.10;;;;;;;1.02;35.63;100174.23;105652;1279;24241;-76
2022/03/21 01:10:39;;;;;;;43.60;39.00;;;;;;;0.99;35.63;100171.94;105596;1279;25303;-75
2022/03/21 01:13:07;;;;;;;49.30;44.20;;;;;;;0.95;35.73;100173.30;105604;1279;24444;-78
2022/03/21 01:15:35;;;;;;;50.40;45.10;;;;;;;0.88;35.76;100174.12;105852;1279;22717;-77
2022/03/21 01:18:03;;;;;;;49.10;43.90;;;;;;;0.79;35.81;100170.83;105880;1279;25357;-78
2022/03/21 01:20:31;;;;;;;46.50;41.70;;;;;;;0.72;35.91;100169.05;105874;1279;24244;-77
2022/03/21 01:22:59;;;;;;;42.80;38.60;;;;;;;0.65;36.02;100163.30;105851;1279;22625;-78
2022/03/21 01:25:27;;;;;;;39.40;35.40;;;;;;;0.59;35.98;100166.30;105518;1279;174737;-78
2022/03/21 01:27:55;;;;;;;36.40;32.60;;;;;;;0.54;35.80;100167.98;105681;1279;22825;-77
2022/03/21 01:30:22;;;;;;;41.20;37.00;;;;;;;0.50;36.08;100167.45;105440;1279;24455;-79
2022/03/21 01:32:50;;;;;;;41.30;37.30;;;;;;;0.46;36.07;100169.27;105629;1279;22725;-77
2022/03/21 01:35:19;;;;;;;38.50;34.50;;;;;;;0.41;36.09;100165.62;105703;1279;22853;-77
2022/03/21 01:37:47;;;;;;;38.10;34.50;;;;;;;0.34;36.33;100160.03;106126;1280;24387;-77
2022/03/21 01:40:16;;;;;;;44.70;40.20;;;;;;;0.30;36.36;100160.85;105783;1279;25427;-78
2022/03/21 01:42:46;;;;;;;38.70;34.70;;;;;;;0.28;36.54;100158.24;106013;1279;25318;-77
2022/03/21 01:45:17;;;;;;;36.00;32.10;;;;;;;0.26;36.41;100155.68;106180;1279;22703;-76
2022/03/21 01:47:46;;;;;;;36.40;32.90;;;;;;;0.24;36.47;100156.27;105777;1279;24335;-78
2022/03/21 01:50:14;;;;;;;36.10;32.50;;;;;;;0.23;36.43;100151.41;106124;1280;25307;-79
2022/03/21 01:52:43;;;;;;;33.80;30.50;;;;;;;0.20;36.44;100154.68;105826;1280;23260;-79
2022/03/21 01:58:00;;;;;;;35.10;31.70;;;;;;;0.10;36.62;100150.23;105875;1279;22559;-79
2022/03/21 02:00:29;;;;;;;44.50;39.90;;;;;;;0.06;36.70;100152.12;105768;1279;25316;-79
2022/03/21 02:02:57;;;;;;;46.20;41.50;;;;;;;0.01;36.71;100157.79;105853;1280;26340;-79
2022/03/21 02:05:28;;;;;;;47.70;43.00;;;;;;;-0.05;36.89;100155.64;105778;1280;25423;-80
2022/03/21 02:07:55;;;;;;;43.60;39.20;;;;;;;-0.10;36.97;100157.82;105877;1279;25686;-78
2022/03/21 02:10:24;;;;;;;40.80;36.70;;;;;;;-0.15;36.96;100156.48;105615;1280;25332;-80
2022/03/21 02:12:51;;;;;;;38.80;35.10;;;;;;;-0.22;37.18;100160.89;105950;1279;22644;-78
2022/03/21 02:15:21;;;;;;;44.40;39.80;;;;;;;-0.29;37.09;100164.00;105841;1279;25390;-79
2022/03/21 02:17:56;;;;;;;50.10;44.80;;;;;;;-0.38;37.24;100163.84;105868;1279;25529;-77
2022/03/21 02:20:25;;;;;;;51.90;45.60;;;;;;;-0.51;37.43;100160.41;105811;1279;25351;-78
2022/03/21 02:23:07;;;;;;;50.90;45.60;;;;;;;-0.59;37.71;100165.24;106178;1279;22567;-77
2022/03/21 02:25:41;;;;;;;51.60;46.20;;;;;;;-0.66;37.63;100164.30;105828;1279;24373;-77
2022/03/21 02:28:11;;;;;;;;;;;;;;;-0.73;37.71;100164.20;105917;1280;22520;-78
2022/03/21 02:30:42;;;;;;;49.80;44.90;;;;;;;-0.82;37.88;100164.33;106166;1279;22634;-77
2022/03/21 02:33:14;;;;;;;50.50;45.40;;;;;;;-0.91;37.92;100163.15;105879;1279;22706;-78
2022/03/21 02:35:46;;;;;;;50.60;45.60;;;;;;;-1.00;38.14;100162.69;106068;1280;24295;-78
2022/03/21 02:38:16;;;;;;;53.00;47.90;;;;;;;-1.09;38.35;100170.02;106502;1279;22590;-77
2022/03/21 02:40:45;;;;;;;48.40;43.50;;;;;;;-1.15;38.31;100175.98;105744;1279;24442;-78
2022/03/21 02:43:13;;;;;;;47.40;42.80;;;;;;;-1.21;38.28;100180.91;106305;1279;25385;-79
2022/03/21 02:45:41;;;;;;;43.00;38.90;;;;;;;-1.28;38.33;100181.15;105744;1279;22701;-76
2022/03/21 02:48:13;;;;;;;49.30;44.30;;;;;;;-1.35;38.45;100180.45;105726;1279;22860;-78
2022/03/21 02:50:56;;;;;;;48.80;43.70;;;;;;;-1.42;38.76;100179.42;106071;1280;24451;-78
2022/03/21 02:53:27;;;;;;;49.60;44.40;;;;;;;-1.49;38.80;100179.29;106016;1279;22665;-78
2022/03/21 02:55:56;;;;;;;49.10;44.20;;;;;;;-1.55;38.94;100178.06;106049;1281;25316;-77
2022/03/21 02:58:24;;;;;;;53.60;48.30;;;;;;;-1.64;38.95;100183.84;106070;1279;22572;-78
2022/03/21 03:00:52;;;;;;;51.30;46.00;;;;;;;-1.76;39.04;100182.92;106190;1279;22550;-78
2022/03/21 03:03:20;;;;;;;57.60;52.20;;;;;;;-1.91;39.01;100182.02;106066;1279;24291;-77
2022/03/21 03:05:48;;;;;;;53.80;48.40;;;;;;;-2.02;39.02;100178.58;105676;1279;22598;-79
2022/03/21 03:08:16;;;;;;;52.20;47.10;;;;;;;-2.10;39.30;100171.49;106039;1279;22730;-78
2022/03/21 03:10:44;;;;;;;47.20;42.70;;;;;;;-2.16;39.26;100168.44;105971;1279;22910;-78
2022/03/21 03:13:12;;;;;;;50.30;45.00;;;;;;;-2.21;39.38;100172.84;106081;1279;22732;-78
2022/03/21 03:15:40;;;;;;;47.20;42.50;;;;;;;-2.28;39.50;100171.11;105704;1279;22672;-76
2022/03/21 03:18:08;;;;;;;51.50;46.00;;;;;;;-2.33;39.66;100166.30;105717;1279;22681;-77
2022/03/21 03:20:36;;;;;;;48.50;43.30;;;;;;;-2.36;39.84;100167.67;105741;1279;22552;-79
2022/03/21 03:23:05;;;;;;;50.70;45.90;;;;;;;-2.38;39.97;100166.48;106046;1279;22714;-78
2022/03/21 03:25:33;;;;;;;52.20;47.10;;;;;;;-2.40;40.18;100166.58;105592;1279;24030;-78
2022/03/21 03:28:01;;;;;;;46.20;41.60;;;;;;;-2.42;40.40;100167.76;105771;1280;24244;-76
2022/03/21 03:30:29;;;;;;;46.70;42.30;;;;;;;-2.43;40.35;100166.14;105795;1279;24113;-76
2022/03/21 03:32:56;;;;;;;40.60;36.70;;;;;;;-2.50;40.35;100166.50;105597;1279;24242;-77
2022/03/21 03:35:24;;;;;;;41.70;37.50;;;;;;;-2.63;41.64;100171.09;105571;1279;24324;-79
2022/03/21 03:37:52;;;;;;;39.50;35.80;;;;;;;-2.76;41.63;100169.70;105983;1279;22571;-79
2022/03/21 03:40:21;;;;;;;40.90;37.10;;;;;;;-2.84;41.20;100176.38;105746;1279;25352;-78
2022/03/21 03:42:49;;;;;;;40.70;36.70;;;;;;;-2.89;41.12;100177.05;105726;1279;26558;-78
2022/03/21 03:45:17;;;;;;;38.90;35.00;;;;;;;-2.91;41.12;100175.69;105694;1279;25431;-77
2022/03/21 03:47:45;;;;;;;43.70;39.50;;;;;;;-2.97;41.16;100175.89;105661;1279;22620;-77
2022/03/21 03:50:13;;;;;;;66.20;60.10;;;;;;;-3.08;41.10;100175.27;105972;1279;24440;-78
2022/03/21 03:52:45;;;;;;;55.60;50.40;;;;;;;-3.19;41.01;100175.13;105775;1279;22572;-78
2022/03/21 03:55:14;;;;;;;62.70;57.20;;;;;;;-3.29;40.99;100175.63;105981;1279;22708;-79
2022/03/21 03:57:43;;;;;;;51.60;46.60;;;;;;;-3.37;41.33;100175.33;106052;1279;22562;-78
2022/03/21 04:00:13;;;;;;;49.60;44.70;;;;;;;-3.40;41.65;100176.16;106184;1279;25494;-78
2022/03/21 04:05:29;;;;;;;44.20;40.10;;;;;;;-3.37;42.00;100175.04;105716;1279;22710;-77
2022/03/21 04:07:57;;;;;;;43.50;39.60;;;;;;;-3.39;41.88;100174.63;106071;1279;22623;-79
2022/03/21 04:10:25;;;;;;;50.60;45.70;;;;;;;-3.38;41.99;100174.23;105764;1279;25428;-78
2022/03/21 04:12:53;;;;;;;46.70;42.10;;;;;;;-3.37;42.04;100176.91;105824;1279;24313;-79
2022/03/21 04:15:24;;;;;;;45.70;41.10;;;;;;;-3.33;42.12;100175.29;105681;1279;24479;-79
2022/03/21 04:17:53;;;;;;;47.80;43.20;;;;;;;-3.34;42.27;100176.77;105585;1279;22709;-78
2022/03/21 04:20:23;;;;;;;46.30;42.00;;;;;;;-3.36;42.07;100177.85;105744;1279;24128;-79
2022/03/21 04:22:51;;;;;;;43.80;39.70;;;;;;;-3.41;42.06;100178.76;105816;1279;22705;-83
2022/03/21 04:25:20;;;;;;;45.50;41.20;;;;;;;-3.47;42.44;100175.41;106072;1279;22731;-80
2022/03/21 04:27:48;;;;;;;53.30;48.40;;;;;;;-3.49;42.45;100176.73;106039;1279;22554;-79
2022/03/21 04:30:16;;;;;;;43.80;39.40;;;;;;;-3.53;42.38;100174.66;105769;1279;22588;-78
2022/03/21 04:32:44;;;;;;;46.00;41.70;;;;;;;-3.58;42.38;100176.70;106035;1279;24240;-79
2022/03/21 04:35:12;;;;;;;41.50;37.80;;;;;;;-3.57;42.65;100175.02;105496;1280;22546;-80
2022/03/21 04:37:40;;;;;;;38.70;35.10;;;;;;;-3.49;42.70;100176.35;105676;1279;23253;-80
2022/03/21 04:40:09;;;;;;;41.30;37.40;;;;;;;-3.40;42.74;100179.16;105683;1279;23331;-78
2022/03/21 04:42:40;;;;;;;42.80;38.90;;;;;;;-3.31;42.68;100178.97;105869;1280;22649;-75
2022/03/21 04:45:08;;;;;;;48.70;44.20;;;;;;;-3.22;42.68;100177.89;105723;1278;24224;-76
2022/03/21 04:47:37;;;;;;;54.80;49.40;;;;;;;-3.14;42.79;100177.30;105665;1279;22793;-76
2022/03/21 04:50:07;;;;;;;49.80;45.00;;;;;;;-3.07;42.99;100181.14;105681;1279;26326;-78
2022/03/21 04:52:36;;;;;;;45.60;41.00;;;;;;;-3.02;42.95;100186.30;105597;1281;23408;-77
2022/03/21 04:55:07;;;;;;;49.80;45.10;;;;;;;-3.00;42.81;100181.44;105948;1281;22571;-75
2022/03/21 04:57:42;;;;;;;49.40;44.30;;;;;;;-2.95;42.88;100181.14;105327;1281;22663;-76
2022/03/21 05:00:10;;;;;;;48.00;43.50;;;;;;;-2.91;42.83;100184.61;105420;1282;22663;-76
2022/03/21 05:02:39;;;;;;;54.40;48.70;;;;;;;-2.87;43.03;100187.16;105492;1279;23777;-76
2022/03/21 05:05:11;;;;;;;71.00;63.30;;;;;;;-2.83;43.58;100187.90;105521;1279;23164;-75
2022/03/21 05:07:45;;;;;;;91.30;81.50;;;;;;;-2.80;43.40;100186.80;105638;1279;22979;-76
2022/03/21 05:10:16;;;;;;;53.30;47.90;;;;;;;-2.76;43.45;100190.65;105722;1279;22538;-76
2022/03/21 05:12:44;;;;;;;49.00;44.10;;;;;;;-2.78;43.06;100186.58;105676;1279;25776;-75
2022/03/21 05:15:11;;;;;;;47.40;42.70;;;;;;;-2.83;42.95;100183.98;106082;1279;25496;-75
2022/03/21 05:17:39;;;;;;;54.20;48.60;;;;;;;-2.88;42.91;100181.48;105673;1278;22607;-75
2022/03/21 05:20:27;;;;;;;69.00;56.90;;;;;;;-2.91;43.25;100185.52;105650;1279;25309;-76
2022/03/21 05:31:15;;;;;;;118.40;73.90;;;;;;;-2.68;43.65;100192.14;105614;1279;25437;-75
2022/03/21 05:36:30;;;;;;;88.00;64.90;;;;;;;-2.44;43.71;100194.20;105701;1279;24355;-75
2022/03/21 05:38:58;;;;;;;72.20;57.40;;;;;;;-2.34;43.60;100199.53;105645;1279;25010;-77
2022/03/21 05:41:27;;;;;;;69.40;54.30;;;;;;;-2.25;43.57;100197.80;105675;1279;24306;-76
2022/03/21 05:43:55;;;;;;;64.70;53.60;;;;;;;-2.17;43.62;100201.61;105460;1279;22572;-76
2022/03/21 05:46:23;;;;;;;81.50;59.00;;;;;;;-2.08;43.58;100203.89;105599;1279;24544;-76
2022/03/21 05:48:53;;;;;;;81.60;59.30;;;;;;;-1.99;43.71;100206.98;105633;1279;24094;-76
2022/03/21 05:51:27;;;;;;;68.80;59.00;;;;;;;-1.91;43.70;100205.86;105752;1279;25253;-76
2022/03/21 05:53:57;;;;;;;75.40;58.40;;;;;;;-1.84;43.64;100206.67;105638;1279;25317;-76
2022/03/21 05:56:27;;;;;;;77.60;56.20;;;;;;;-1.76;43.77;100209.66;105621;1279;22632;-77
2022/03/21 05:58:56;;;;;;;83.80;66.20;;;;;;;-1.67;43.76;100209.98;105707;1279;22573;-76
2022/03/21 06:01:24;;;;;;;168.40;94.60;;;;;;;-1.57;43.76;100218.42;105513;1279;22552;-78
2022/03/21 06:03:54;;;;;;;139.90;87.70;;;;;;;-1.48;43.83;100219.88;105691;1279;22581;-77
2022/03/21 06:06:23;;;;;;;120.20;80.80;;;;;;;-1.38;43.82;100218.66;105644;1279;22546;-76
2022/03/21 06:08:51;;;;;;;102.10;75.20;;;;;;;-1.27;43.80;100221.25;105738;1279;23583;-77
2022/03/21 06:11:19;;;;;;;93.50;70.80;;;;;;;-1.17;43.98;100221.91;105767;1279;24690;-74
2022/03/21 06:13:47;;;;;;;95.50;66.80;;;;;;;-1.06;43.89;100220.39;105686;1279;22553;-76
2022/03/21 06:16:17;;;;;;;69.30;61.80;;;;;;;-0.96;43.78;100219.80;105690;1279;22784;-75
2022/03/21 06:18:46;;;;;;;71.30;64.20;;;;;;;-0.86;43.73;100220.38;105630;1279;22715;-75
2022/03/21 06:21:14;;;;;;;68.50;61.00;;;;;;;-0.78;43.96;100221.68;105525;1281;24123;-76
2022/03/21 06:23:42;;;;;;;64.90;58.20;;;;;;;-0.66;43.81;100226.73;105689;1280;22553;-77
2022/03/21 06:26:10;;;;;;;59.40;53.10;;;;;;;-0.53;43.93;100227.42;106019;1279;22752;-75
2022/03/21 06:28:37;;;;;;;58.10;51.90;;;;;;;-0.38;44.13;100226.89;105498;1279;22592;-76
2022/03/21 06:31:05;;;;;;;60.50;51.30;;;;;;;-0.24;43.88;100226.54;105766;1279;22628;-75
2022/03/21 06:33:33;;;;;;;57.20;51.10;;;;;;;-0.11;43.83;100226.46;105729;1279;22694;-75
2022/03/21 06:36:02;;;;;;;58.20;49.50;;;;;;;0.04;44.09;100230.08;105647;1279;23259;-76
2022/03/21 06:38:30;;;;;;;54.50;48.50;;;;;;;0.18;44.01;100233.45;105490;1279;24101;-77
2022/03/21 06:40:59;;;;;;;56.80;50.90;;;;;;;0.32;44.09;100230.95;105721;1279;24436;-76
2022/03/21 06:43:27;;;;;;;51.90;46.50;;;;;;;0.46;43.85;100228.18;105747;1279;22550;-78
2022/03/21 06:45:58;;;;;;;54.20;47.20;;;;;;;0.60;43.94;100230.20;105989;1279;22607;-76
2022/03/21 06:48:27;;;;;;;51.70;46.10;;;;;;;0.75;43.87;100228.38;105730;1279;25338;-77
2022/03/21 06:50:55;;;;;;;53.20;47.70;;;;;;;0.89;43.92;100228.16;105644;1279;22503;-76
2022/03/21 06:53:23;;;;;;;54.10;48.40;;;;;;;1.04;43.75;100227.16;105708;1279;24286;-76
2022/03/21 06:55:51;;;;;;;53.90;47.80;;;;;;;1.18;43.90;100223.48;105869;1279;22617;-76
2022/03/21 06:58:19;;;;;;;52.90;47.40;;;;;;;1.32;43.69;100227.64;105972;1279;22567;-76
2022/03/21 07:00:48;;;;;;;54.00;45.10;;;;;;;1.48;43.69;100230.27;105999;1279;23284;-76
2022/03/21 07:03:16;;;;;;;50.40;45.10;;;;;;;1.63;43.62;100227.59;105758;1280;22547;-76
2022/03/21 07:05:45;;;;;;;48.60;43.80;;;;;;;1.81;43.62;100230.02;105736;1279;25376;-75
2022/03/21 07:08:13;;;;;;;49.20;43.80;;;;;;;1.98;43.52;100224.81;105678;1279;25527;-75
2022/03/21 07:10:44;;;;;;;45.40;41.00;;;;;;;2.14;43.47;100227.95;105689;1279;22557;-75
2022/03/21 07:13:12;;;;;;;49.00;41.60;;;;;;;2.31;43.43;100232.24;105770;1279;22550;-76
2022/03/21 07:15:40;;;;;;;45.00;40.50;;;;;;;2.48;43.19;100229.27;105786;1279;22694;-76
2022/03/21 07:18:09;;;;;;;44.10;39.90;;;;;;;2.67;43.15;100229.46;105678;1279;23401;-76
2022/03/21 07:20:37;;;;;;;42.80;38.50;;;;;;;2.85;43.03;100230.38;105566;1279;22714;-76
2022/03/21 07:23:05;;;;;;;45.20;40.30;;;;;;;3.03;43.05;100233.81;105517;1279;22541;-77
2022/03/21 07:25:33;;;;;;;44.80;40.10;;;;;;;3.20;42.71;100232.42;105712;1279;24368;-76
2022/03/21 07:28:01;;;;;;;44.10;39.70;;;;;;;3.37;42.37;100232.64;105671;1279;25542;-76
2022/03/21 07:30:29;;;;;;;54.60;44.60;;;;;;;3.51;42.59;100229.95;105655;1279;22714;-76
2022/03/21 07:32:59;;;;;;;47.70;42.80;;;;;;;3.64;42.36;100230.88;106029;1279;25417;-76
2022/03/21 07:35:27;;;;;;;54.60;45.30;;;;;;;3.77;42.50;100233.91;105991;1279;25380;-75
2022/03/21 07:37:57;;;;;;;47.50;42.80;;;;;;;3.88;42.11;100235.44;105422;1279;22705;-73
2022/03/21 07:40:26;;;;;;;42.30;37.60;;;;;;;3.99;42.10;100235.00;105654;1279;22731;-75
2022/03/21 07:42:54;;;;;;;42.20;37.80;;;;;;;4.07;41.78;100232.13;105503;1279;22554;-76
2022/03/21 07:48:11;;;;;;;42.10;36.70;;;;;;;4.28;41.49;100240.50;105461;1279;22556;-77
2022/03/21 07:50:41;;;;;;;39.90;35.60;;;;;;;4.38;41.30;100243.40;106048;1279;24075;-77
2022/03/21 07:53:10;;;;;;;38.70;34.70;;;;;;;4.45;40.66;100247.78;106049;1279;22565;-77
2022/03/21 07:55:37;;;;;;;39.80;35.90;;;;;;;4.52;40.17;100250.76;106056;1279;25536;-77
2022/03/21 07:58:05;;;;;;;40.40;36.20;;;;;;;4.61;40.67;100247.58;106007;1279;22559;-76
2022/03/21 08:00:33;;;;;;;39.20;35.30;;;;;;;4.71;40.63;100248.55;105685;1279;22582;-76
2022/03/21 08:03:02;;;;;;;36.60;33.00;;;;;;;4.81;40.42;100244.49;105679;1279;22804;-76
2022/03/21 08:05:31;;;;;;;35.90;32.40;;;;;;;4.91;40.33;100243.69;105655;1279;22691;-76
2022/03/21 08:07:59;;;;;;;35.80;32.30;;;;;;;5.00;39.64;100240.70;105617;1279;25442;-76
2022/03/21 08:10:29;;;;;;;37.60;33.90;;;;;;;5.10;40.11;100243.20;105565;1279;22887;-76
2022/03/21 08:12:57;;;;;;;42.60;38.40;;;;;;;5.19;40.05;100241.02;105396;1280;24445;-76
2022/03/21 08:15:28;;;;;;;40.30;35.80;;;;;;;5.31;39.86;100241.59;105597;1279;23137;-77
2022/03/21 08:17:59;;;;;;;38.20;32.10;;;;;;;5.42;39.21;100241.46;105867;1279;25344;-77
2022/03/21 08:20:33;;;;;;;36.60;32.00;;;;;;;5.52;38.87;100244.45;106095;1279;24365;-77
2022/03/21 08:23:06;;;;;;;33.30;27.30;;;;;;;5.61;38.65;100241.19;106015;1277;22697;-76
2022/03/21 08:25:36;;;;;;;31.00;28.00;;;;;;;5.69;38.44;100248.20;105665;1279;22557;-76
2022/03/21 08:28:08;;;;;;;35.20;29.80;;;;;;;5.77;38.12;100244.08;105431;1281;24690;-76
2022/03/21 08:30:37;;;;;;;34.10;28.70;;;;;;;5.87;38.19;100241.83;105589;1279;23924;-77
2022/03/21 08:33:07;;;;;;;30.40;27.40;;;;;;;5.99;38.36;100240.42;105464;1279;25494;-77
2022/03/21 08:35:38;;;;;;;29.30;26.30;;;;;;;6.11;38.41;100234.95;105803;1279;22580;-77
2022/03/21 08:38:09;;;;;;;29.80;26.70;;;;;;;6.23;38.09;100235.10;105668;1279;25449;-78
2022/03/21 08:40:38;;;;;;;30.40;27.40;;;;;;;6.31;37.87;100233.00;105666;1279;23405;-77
2022/03/21 08:43:08;;;;;;;29.90;26.90;;;;;;;6.37;37.66;100231.83;105737;1279;24862;-77
2022/03/21 08:45:36;;;;;;;30.70;27.50;;;;;;;6.45;37.74;100231.33;105743;1279;25368;-76
2022/03/21 08:48:05;;;;;;;30.00;26.80;;;;;;;6.56;37.68;100229.45;105619;1280;23954;-76
2022/03/21 08:50:34;;;;;;;41.80;30.00;;;;;;;6.67;37.46;100225.59;105590;1279;24238;-75
2022/03/21 08:53:03;;;;;;;35.80;27.40;;;;;;;6.77;36.99;100218.96;105818;1279;24454;-78
2022/03/21 08:55:31;;;;;;;31.30;26.80;;;;;;;6.86;36.98;100220.27;105707;1279;26706;-76
2022/03/21 08:57:59;;;;;;;30.80;27.00;;;;;;;6.93;36.96;100221.33;105707;1279;24244;-77
2022/03/21 09:00:27;;;;;;;29.20;26.20;;;;;;;7.03;36.90;100220.05;105578;1279;24344;-77
2022/03/21 09:02:55;;;;;;;31.40;27.90;;;;;;;7.15;37.11;100221.19;105716;1279;22713;-78
2022/03/21 09:05:24;;;;;;;41.40;26.90;;;;;;;7.26;37.15;100215.73;105823;1279;22547;-76
2022/03/21 09:07:52;;;;;;;31.20;28.00;;;;;;;7.38;36.92;100221.52;105750;1279;23456;-77
2022/03/21 09:10:20;;;;;;;34.00;28.90;;;;;;;7.51;37.08;100216.25;105578;1279;22681;-78
2022/03/21 09:12:48;;;;;;;30.60;26.00;;;;;;;7.66;36.37;100222.38;106058;1279;25438;-78
2022/03/21 09:15:16;;;;;;;26.40;22.10;;;;;;;7.74;36.43;100223.90;105636;1279;22747;-77
2022/03/21 09:17:44;;;;;;;33.10;25.10;;;;;;;7.79;36.24;100218.42;105615;1279;22865;-76
2022/03/21 09:20:14;;;;;;;28.80;23.00;;;;;;;7.87;35.81;100220.33;105267;1280;22572;-76
2022/03/21 09:22:42;;;;;;;23.60;21.10;;;;;;;7.93;35.73;100221.09;105706;1279;22587;-76
2022/03/21 09:25:10;;;;;;;26.30;22.80;;;;;;;8.00;35.36;100217.05;106018;1279;24119;-77
2022/03/21 09:27:42;;;;;;;26.40;23.40;;;;;;;8.08;35.58;100219.61;105577;1279;22570;-77
2022/03/21 09:30:11;;;;;;;29.80;23.00;;;;;;;8.21;35.67;100215.70;105729;1279;24774;-77
2022/03/21 09:32:39;;;;;;;26.80;22.00;;;;;;;8.33;35.44;100211.20;105636;1279;22655;-77
2022/03/21 09:35:08;;;;;;;24.00;21.50;;;;;;;8.42;34.81;100212.15;105736;1279;22508;-77
2022/03/21 09:37:36;;;;;;;24.80;21.80;;;;;;;8.51;34.96;100210.54;105737;1279;22668;-78
2022/03/21 09:40:06;;;;;;;29.90;23.30;;;;;;;8.60;34.65;100206.48;105725;1279;25345;-78
2022/03/21 09:42:36;;;;;;;26.90;23.50;;;;;;;8.67;34.62;100201.38;106100;1279;24374;-77
2022/03/21 09:45:04;;;;;;;29.70;22.40;;;;;;;8.78;33.86;100204.23;106209;1279;25528;-77
2022/03/21 09:50:19;;;;;;;22.80;20.50;;;;;;;8.92;33.55;100196.89;105742;1279;24155;-76
2022/03/21 09:52:47;;;;;;;35.90;21.40;;;;;;;8.98;33.77;100195.77;105752;1279;22765;-80
2022/03/21 09:55:15;;;;;;;37.20;23.90;;;;;;;9.08;33.83;100192.71;105722;1279;24435;-77
2022/03/21 09:57:43;;;;;;;30.70;23.40;;;;;;;9.19;33.68;100184.42;105621;1279;22786;-77
2022/03/21 10:00:12;;;;;;;24.80;22.20;;;;;;;9.32;33.56;100187.15;105762;1279;23440;-78
2022/03/21 10:02:41;;;;;;;24.50;22.00;;;;;;;9.45;33.63;100182.42;105564;1280;25542;-77
2022/03/21 10:05:29;;;;;;;26.00;23.20;;;;;;;9.57;33.41;100181.61;105909;1279;22620;-77
2022/03/21 10:08:25;;;;;;;40.10;26.50;;;;;;;9.65;33.06;100182.00;105735;1279;25558;-77
2022/03/21 10:10:58;;;;;;;31.00;25.20;;;;;;;9.73;32.88;100174.89;105702;1281;25979;-77
2022/03/21 10:13:35;;;;;;;28.70;24.90;;;;;;;9.83;33.07;100179.45;105707;1279;22708;-74
2022/03/21 10:16:10;;;;;;;28.10;22.30;;;;;;;9.89;31.95;100175.17;105631;1279;24502;-77
2022/03/21 10:18:56;;;;;;;27.70;22.40;;;;;;;9.93;32.91;100172.23;105858;1279;22631;-77
2022/03/21 10:21:26;;;;;;;22.70;20.40;;;;;;;10.07;32.21;100169.44;105960;1279;25450;-77
2022/03/21 10:24:06;;;;;;;23.20;19.20;;;;;;;10.22;32.15;100167.05;106161;1279;22563;-76
2022/03/21 10:26:40;;;;;;;39.60;20.00;;;;;;;10.39;32.54;100163.09;106133;1279;25377;-76
2022/03/21 10:29:11;;;;;;;25.70;21.10;;;;;;;10.52;31.03;100162.55;106092;1279;25374;-76
2022/03/21 10:31:45;;;;;;;31.20;20.70;;;;;;;10.51;31.92;100157.02;106188;1279;23429;-76
2022/03/21 10:34:18;;;;;;;30.60;22.00;;;;;;;10.61;31.73;100158.94;106132;1279;25519;-77
2022/03/21 10:37:04;;;;;;;31.90;19.20;;;;;;;10.73;31.69;100148.36;106092;1279;24585;-77
2022/03/21 10:39:40;;;;;;;22.50;17.90;;;;;;;10.87;31.24;100153.33;106216;1279;24289;-79
2022/03/21 10:42:09;;;;;;;27.80;21.90;;;;;;;10.90;30.23;100152.24;105880;1280;22718;-77
2022/03/21 10:44:38;;;;;;;26.90;20.00;;;;;;;10.89;29.90;100152.98;105773;1279;24316;-76
2022/03/21 10:47:08;;;;;;;26.90;18.30;;;;;;;10.92;30.33;100149.15;105780;1279;23454;-77
2022/03/21 10:49:43;;;;;;;20.20;18.10;;;;;;;10.98;30.18;100145.07;105389;1280;23266;-76
2022/03/21 10:52:18;;;;;;;21.00;18.50;;;;;;;11.07;30.94;100141.50;105904;1279;22671;-74
2022/03/21 10:54:48;;;;;;;29.60;19.30;;;;;;;11.22;30.25;100137.78;105750;1279;22720;-76
2022/03/21 10:57:31;;;;;;;18.20;16.00;;;;;;;11.32;29.71;100135.00;106146;1279;24327;-76
2022/03/21 11:00:23;;;;;;;23.80;17.90;;;;;;;11.40;30.10;100136.45;105713;1279;23157;-76
2022/03/21 11:02:55;;;;;;;23.70;19.20;;;;;;;11.53;30.00;100137.61;106174;1279;25799;-75
2022/03/21 11:05:26;;;;;;;23.00;19.70;;;;;;;11.62;29.81;100136.97;105966;1279;25357;-76
2022/03/21 11:07:54;;;;;;;29.40;21.80;;;;;;;11.69;29.65;100135.23;105744;1280;25363;-75
2022/03/21 11:10:24;;;;;;;21.20;19.20;;;;;;;11.78;29.75;100134.42;105800;1279;24091;-79
2022/03/21 11:12:57;;;;;;;20.90;18.70;;;;;;;11.90;29.79;100132.91;105853;1279;22806;-79
2022/03/21 11:15:25;;;;;;;19.70;17.60;;;;;;;11.93;29.38;100119.55;105981;1280;24505;-81
2022/03/21 11:17:55;;;;;;;24.00;17.90;;;;;;;12.02;29.18;100116.61;106514;1279;22716;-79
2022/03/21 11:20:24;;;;;;;21.40;19.00;;;;;;;12.09;28.82;100114.69;106170;1279;24367;-81
2022/03/21 11:22:53;;;;;;;27.70;18.00;;;;;;;12.14;28.77;100112.59;105719;1282;24318;-81
2022/03/21 11:25:23;;;;;;;38.40;18.10;;;;;;;12.19;28.87;100112.48;105897;1280;22650;-75
2022/03/21 11:27:57;;;;;;;19.10;15.80;;;;;;;12.23;28.22;100116.89;105735;1280;22700;-76
2022/03/21 11:30:48;;;;;;;18.90;16.20;;;;;;;12.24;28.32;100109.45;105535;1281;24246;-77
2022/03/21 11:33:37;;;;;;;23.00;16.80;;;;;;;12.31;28.42;100101.83;105559;1281;22700;-78
2022/03/21 11:36:08;;;;;;;20.00;17.90;;;;;;;12.38;27.96;100105.47;106093;1280;22713;-78
2022/03/21 11:38:41;;;;;;;26.20;18.60;;;;;;;12.48;28.24;100101.16;106262;1279;22608;-79